sensor_id;sensor_type;location;lat;lon;timestamp;P1;durP1;ratioP1;P2;durP2;ratioP2
15878;SDS011;61999;51.514;14.614;2023-03-16T00:00:07;4.10;;;2.80;;
15878;SDS011;61999;51.514;14.614;2023-03-16T00:02:39;2.40;;;2.20;;
15878;SDS011;61999;51.514;14.614;2023-03-16T00:05:07;3.77;;;2.33;;
15878;SDS011;61999;51.514;14.614;2023-03-16T00:07:35;3.13;;;2.40;;
15878;SDS011;61999;51.514;14.614;2023-03-16T00:10:04;3.37;;;2.50;;
15878;SDS011;61999;51.514;14.614;2023-03-16T00:12:33;2.53;;;2.20;;
15878;SDS011;61999;51.514;14.614;2023-03-16T00:15:02;3.53;;;2.10;;
15878;SDS011;61999;51.514;14.614;2023-03-16T00:17:31;2.93;;;2.10;;
15878;SDS011;61999;51.514;14.614;2023-03-16T00:19:59;3.17;;;2.10;;
15878;SDS011;61999;51.514;14.614;2023-03-16T00:22:28;2.83;;;2.17;;
15878;SDS011;61999;51.514;14.614;2023-03-16T00:24:56;5.50;;;2.70;;
15878;SDS011;61999;51.514;14.614;2023-03-16T00:27:24;4.23;;;2.73;;
15878;SDS011;61999;51.514;14.614;2023-03-16T00:29:53;4.13;;;2.77;;
15878;SDS011;61999;51.514;14.614;2023-03-16T00:32:23;3.47;;;2.80;;
15878;SDS011;61999;51.514;14.614;2023-03-16T00:34:54;3.17;;;2.53;;
15878;SDS011;61999;51.514;14.614;2023-03-16T00:37:23;3.07;;;2.07;;
15878;SDS011;61999;51.514;14.614;2023-03-16T00:39:53;5.13;;;2.90;;
15878;SDS011;61999;51.514;14.614;2023-03-16T00:42:23;4.27;;;2.30;;
15878;SDS011;61999;51.514;14.614;2023-03-16T00:44:56;3.90;;;2.20;;
15878;SDS011;61999;51.514;14.614;2023-03-16T00:47:27;2.63;;;2.20;;
15878;SDS011;61999;51.514;14.614;2023-03-16T00:49:58;3.87;;;2.60;;
15878;SDS011;61999;51.514;14.614;2023-03-16T00:52:28;3.93;;;2.33;;
15878;SDS011;61999;51.514;14.614;2023-03-16T00:54:56;3.90;;;2.43;;
15878;SDS011;61999;51.514;14.614;2023-03-16T00:57:24;4.60;;;2.47;;
15878;SDS011;61999;51.514;14.614;2023-03-16T00:59:52;3.80;;;2.30;;
15878;SDS011;61999;51.514;14.614;2023-03-16T01:02:21;3.40;;;2.43;;
15878;SDS011;61999;51.514;14.614;2023-03-16T01:04:51;4.40;;;2.60;;
15878;SDS011;61999;51.514;14.614;2023-03-16T01:07:20;3.87;;;2.40;;
15878;SDS011;61999;51.514;14.614;2023-03-16T01:09:49;3.50;;;2.43;;
15878;SDS011;61999;51.514;14.614;2023-03-16T01:12:17;3.73;;;2.40;;
15878;SDS011;61999;51.514;14.614;2023-03-16T01:14:46;4.93;;;2.10;;
15878;SDS011;61999;51.514;14.614;2023-03-16T01:17:15;4.67;;;2.43;;
15878;SDS011;61999;51.514;14.614;2023-03-16T01:19:44;3.30;;;2.47;;
15878;SDS011;61999;51.514;14.614;2023-03-16T01:22:14;2.40;;;2.20;;
15878;SDS011;61999;51.514;14.614;2023-03-16T01:24:42;2.53;;;2.33;;
15878;SDS011;61999;51.514;14.614;2023-03-16T01:27:12;4.63;;;3.17;;
15878;SDS011;61999;51.514;14.614;2023-03-16T01:29:40;4.03;;;2.43;;
15878;SDS011;61999;51.514;14.614;2023-03-16T01:32:09;4.27;;;2.50;;
15878;SDS011;61999;51.514;14.614;2023-03-16T01:34:38;3.37;;;2.73;;
15878;SDS011;61999;51.514;14.614;2023-03-16T01:37:06;5.27;;;2.93;;
15878;SDS011;61999;51.514;14.614;2023-03-16T01:39:36;3.33;;;2.60;;
15878;SDS011;61999;51.514;14.614;2023-03-16T01:42:03;5.20;;;2.90;;
15878;SDS011;61999;51.514;14.614;2023-03-16T01:47:19;3.40;;;2.43;;
15878;SDS011;61999;51.514;14.614;2023-03-16T01:49:48;2.40;;;2.20;;
15878;SDS011;61999;51.514;14.614;2023-03-16T01:52:22;3.30;;;2.30;;
15878;SDS011;61999;51.514;14.614;2023-03-16T01:54:57;7.30;;;3.40;;
15878;SDS011;61999;51.514;14.614;2023-03-16T01:57:31;4.23;;;3.00;;
15878;SDS011;61999;51.514;14.614;2023-03-16T02:00:06;2.97;;;2.30;;
15878;SDS011;61999;51.514;14.614;2023-03-16T02:02:45;3.70;;;2.63;;
15878;SDS011;61999;51.514;14.614;2023-03-16T02:05:18;2.70;;;2.50;;
15878;SDS011;61999;51.514;14.614;2023-03-16T02:07:54;5.10;;;3.37;;
15878;SDS011;61999;51.514;14.614;2023-03-16T02:10:26;4.07;;;2.93;;
15878;SDS011;61999;51.514;14.614;2023-03-16T02:12:56;4.03;;;3.00;;
15878;SDS011;61999;51.514;14.614;2023-03-16T02:15:24;5.20;;;3.20;;
15878;SDS011;61999;51.514;14.614;2023-03-16T02:17:53;8.03;;;3.63;;
15878;SDS011;61999;51.514;14.614;2023-03-16T02:20:28;4.07;;;3.23;;
15878;SDS011;61999;51.514;14.614;2023-03-16T02:23:09;3.50;;;3.20;;
15878;SDS011;61999;51.514;14.614;2023-03-16T02:25:46;4.97;;;3.10;;
15878;SDS011;61999;51.514;14.614;2023-03-16T02:28:26;6.20;;;3.17;;
15878;SDS011;61999;51.514;14.614;2023-03-16T02:31:02;6.97;;;3.57;;
15878;SDS011;61999;51.514;14.614;2023-03-16T02:33:32;3.03;;;2.60;;
15878;SDS011;61999;51.514;14.614;2023-03-16T02:36:01;3.37;;;3.00;;
15878;SDS011;61999;51.514;14.614;2023-03-16T02:38:29;5.20;;;3.40;;
15878;SDS011;61999;51.514;14.614;2023-03-16T02:40:58;3.73;;;3.43;;
15878;SDS011;61999;51.514;14.614;2023-03-16T02:43:38;5.63;;;3.30;;
15878;SDS011;61999;51.514;14.614;2023-03-16T02:46:14;6.67;;;3.30;;
15878;SDS011;61999;51.514;14.614;2023-03-16T02:48:44;4.23;;;3.30;;
15878;SDS011;61999;51.514;14.614;2023-03-16T02:51:20;4.53;;;3.90;;
15878;SDS011;61999;51.514;14.614;2023-03-16T02:53:48;8.80;;;4.27;;
15878;SDS011;61999;51.514;14.614;2023-03-16T02:56:16;4.53;;;3.03;;
15878;SDS011;61999;51.514;14.614;2023-03-16T02:58:44;4.07;;;3.30;;
15878;SDS011;61999;51.514;14.614;2023-03-16T03:01:12;5.17;;;3.40;;
15878;SDS011;61999;51.514;14.614;2023-03-16T03:03:42;4.57;;;3.60;;
15878;SDS011;61999;51.514;14.614;2023-03-16T03:06:10;6.27;;;3.67;;
15878;SDS011;61999;51.514;14.614;2023-03-16T03:08:38;4.43;;;3.43;;
15878;SDS011;61999;51.514;14.614;2023-03-16T03:11:05;3.83;;;3.33;;
15878;SDS011;61999;51.514;14.614;2023-03-16T03:13:33;4.63;;;3.20;;
15878;SDS011;61999;51.514;14.614;2023-03-16T03:16:04;5.77;;;3.30;;
15878;SDS011;61999;51.514;14.614;2023-03-16T03:18:34;5.13;;;3.37;;
15878;SDS011;61999;51.514;14.614;2023-03-16T03:21:02;3.60;;;3.03;;
15878;SDS011;61999;51.514;14.614;2023-03-16T03:23:30;3.37;;;2.80;;
15878;SDS011;61999;51.514;14.614;2023-03-16T03:26:00;5.50;;;3.23;;
15878;SDS011;61999;51.514;14.614;2023-03-16T03:28:29;5.23;;;3.20;;
15878;SDS011;61999;51.514;14.614;2023-03-16T03:30:59;6.87;;;4.50;;
15878;SDS011;61999;51.514;14.614;2023-03-16T03:33:27;5.07;;;4.10;;
15878;SDS011;61999;51.514;14.614;2023-03-16T03:36:00;6.70;;;4.33;;
15878;SDS011;61999;51.514;14.614;2023-03-16T03:38:28;4.57;;;3.87;;
15878;SDS011;61999;51.514;14.614;2023-03-16T03:40:56;5.40;;;3.93;;
15878;SDS011;61999;51.514;14.614;2023-03-16T03:43:25;3.93;;;3.50;;
15878;SDS011;61999;51.514;14.614;2023-03-16T03:45:56;4.80;;;3.53;;
15878;SDS011;61999;51.514;14.614;2023-03-16T03:48:26;4.00;;;3.17;;
15878;SDS011;61999;51.514;14.614;2023-03-16T03:50:54;3.50;;;3.20;;
15878;SDS011;61999;51.514;14.614;2023-03-16T03:53:24;3.10;;;2.77;;
15878;SDS011;61999;51.514;14.614;2023-03-16T03:55:52;5.63;;;3.23;;
15878;SDS011;61999;51.514;14.614;2023-03-16T03:58:20;5.23;;;3.20;;
15878;SDS011;61999;51.514;14.614;2023-03-16T04:00:48;4.80;;;3.50;;
15878;SDS011;61999;51.514;14.614;2023-03-16T04:03:17;5.40;;;3.10;;
15878;SDS011;61999;51.514;14.614;2023-03-16T04:05:45;3.73;;;3.20;;
15878;SDS011;61999;51.514;14.614;2023-03-16T04:08:13;6.33;;;4.03;;
15878;SDS011;61999;51.514;14.614;2023-03-16T04:10:43;4.77;;;3.80;;
15878;SDS011;61999;51.514;14.614;2023-03-16T04:13:11;7.13;;;4.90;;
15878;SDS011;61999;51.514;14.614;2023-03-16T04:15:39;6.23;;;4.40;;
15878;SDS011;61999;51.514;14.614;2023-03-16T04:18:07;5.73;;;4.47;;
15878;SDS011;61999;51.514;14.614;2023-03-16T04:20:35;6.27;;;3.90;;
15878;SDS011;61999;51.514;14.614;2023-03-16T04:23:03;8.23;;;4.50;;
15878;SDS011;61999;51.514;14.614;2023-03-16T04:25:31;5.67;;;4.60;;
15878;SDS011;61999;51.514;14.614;2023-03-16T04:28:01;7.50;;;4.10;;
15878;SDS011;61999;51.514;14.614;2023-03-16T04:30:29;7.67;;;4.23;;
15878;SDS011;61999;51.514;14.614;2023-03-16T04:32:57;4.83;;;4.10;;
15878;SDS011;61999;51.514;14.614;2023-03-16T04:35:25;4.27;;;3.87;;
15878;SDS011;61999;51.514;14.614;2023-03-16T04:37:53;7.73;;;3.77;;
15878;SDS011;61999;51.514;14.614;2023-03-16T04:40:21;4.83;;;3.97;;
15878;SDS011;61999;51.514;14.614;2023-03-16T04:42:51;5.83;;;3.77;;
15878;SDS011;61999;51.514;14.614;2023-03-16T04:45:20;5.67;;;4.23;;
15878;SDS011;61999;51.514;14.614;2023-03-16T04:47:49;3.50;;;3.10;;
15878;SDS011;61999;51.514;14.614;2023-03-16T04:50:17;6.03;;;3.73;;
15878;SDS011;61999;51.514;14.614;2023-03-16T04:52:45;4.67;;;4.20;;
15878;SDS011;61999;51.514;14.614;2023-03-16T04:55:13;5.87;;;4.30;;
15878;SDS011;61999;51.514;14.614;2023-03-16T04:57:42;6.70;;;3.60;;
15878;SDS011;61999;51.514;14.614;2023-03-16T05:00:11;7.30;;;4.53;;
15878;SDS011;61999;51.514;14.614;2023-03-16T05:02:46;6.43;;;4.00;;
15878;SDS011;61999;51.514;14.614;2023-03-16T05:05:14;5.53;;;3.80;;
15878;SDS011;61999;51.514;14.614;2023-03-16T05:07:43;18.17;;;11.10;;
15878;SDS011;61999;51.514;14.614;2023-03-16T05:10:13;26.67;;;14.83;;
15878;SDS011;61999;51.514;14.614;2023-03-16T05:12:44;11.10;;;7.50;;
15878;SDS011;61999;51.514;14.614;2023-03-16T05:15:12;9.23;;;6.10;;
15878;SDS011;61999;51.514;14.614;2023-03-16T05:17:40;10.50;;;6.47;;
15878;SDS011;61999;51.514;14.614;2023-03-16T05:20:11;9.23;;;6.40;;
15878;SDS011;61999;51.514;14.614;2023-03-16T05:22:43;13.67;;;9.60;;
15878;SDS011;61999;51.514;14.614;2023-03-16T05:25:13;12.23;;;8.47;;
15878;SDS011;61999;51.514;14.614;2023-03-16T05:27:43;8.10;;;6.00;;
15878;SDS011;61999;51.514;14.614;2023-03-16T05:30:16;8.20;;;6.43;;
15878;SDS011;61999;51.514;14.614;2023-03-16T05:32:45;7.47;;;6.30;;
15878;SDS011;61999;51.514;14.614;2023-03-16T05:35:14;10.10;;;6.87;;
15878;SDS011;61999;51.514;14.614;2023-03-16T05:37:43;8.50;;;5.83;;
15878;SDS011;61999;51.514;14.614;2023-03-16T05:40:11;5.77;;;5.17;;
15878;SDS011;61999;51.514;14.614;2023-03-16T05:42:43;6.70;;;4.83;;
15878;SDS011;61999;51.514;14.614;2023-03-16T05:45:13;6.40;;;4.50;;
15878;SDS011;61999;51.514;14.614;2023-03-16T05:47:43;7.63;;;4.13;;
15878;SDS011;61999;51.514;14.614;2023-03-16T05:50:11;4.53;;;3.80;;
15878;SDS011;61999;51.514;14.614;2023-03-16T05:52:43;9.43;;;4.37;;
15878;SDS011;61999;51.514;14.614;2023-03-16T05:55:12;6.30;;;4.70;;
15878;SDS011;61999;51.514;14.614;2023-03-16T05:57:43;6.23;;;4.77;;
15878;SDS011;61999;51.514;14.614;2023-03-16T06:00:12;5.47;;;3.87;;
15878;SDS011;61999;51.514;14.614;2023-03-16T06:02:44;5.80;;;4.27;;
15878;SDS011;61999;51.514;14.614;2023-03-16T06:05:18;7.23;;;5.47;;
15878;SDS011;61999;51.514;14.614;2023-03-16T06:07:49;6.10;;;4.70;;
15878;SDS011;61999;51.514;14.614;2023-03-16T06:10:18;6.47;;;4.47;;
15878;SDS011;61999;51.514;14.614;2023-03-16T06:12:47;4.70;;;4.30;;
15878;SDS011;61999;51.514;14.614;2023-03-16T06:15:15;6.27;;;4.53;;
15878;SDS011;61999;51.514;14.614;2023-03-16T06:17:43;8.83;;;4.57;;
15878;SDS011;61999;51.514;14.614;2023-03-16T06:20:11;6.23;;;4.10;;
15878;SDS011;61999;51.514;14.614;2023-03-16T06:22:41;4.40;;;3.60;;
15878;SDS011;61999;51.514;14.614;2023-03-16T06:25:10;6.77;;;3.77;;
15878;SDS011;61999;51.514;14.614;2023-03-16T06:27:40;5.23;;;4.20;;
15878;SDS011;61999;51.514;14.614;2023-03-16T06:30:09;6.73;;;4.00;;
15878;SDS011;61999;51.514;14.614;2023-03-16T06:32:40;9.27;;;4.10;;
15878;SDS011;61999;51.514;14.614;2023-03-16T06:35:10;5.90;;;3.90;;
15878;SDS011;61999;51.514;14.614;2023-03-16T06:37:39;6.80;;;4.43;;
15878;SDS011;61999;51.514;14.614;2023-03-16T06:40:09;6.90;;;3.70;;
15878;SDS011;61999;51.514;14.614;2023-03-16T06:42:38;5.83;;;4.27;;
15878;SDS011;61999;51.514;14.614;2023-03-16T06:45:06;8.17;;;4.43;;
15878;SDS011;61999;51.514;14.614;2023-03-16T06:47:37;6.77;;;3.37;;
15878;SDS011;61999;51.514;14.614;2023-03-16T06:50:05;6.33;;;3.90;;
15878;SDS011;61999;51.514;14.614;2023-03-16T06:52:34;8.17;;;4.40;;
15878;SDS011;61999;51.514;14.614;2023-03-16T06:55:04;8.03;;;4.47;;
15878;SDS011;61999;51.514;14.614;2023-03-16T06:57:33;5.27;;;3.80;;
15878;SDS011;61999;51.514;14.614;2023-03-16T07:00:01;8.63;;;4.57;;
15878;SDS011;61999;51.514;14.614;2023-03-16T07:02:30;6.17;;;4.03;;
15878;SDS011;61999;51.514;14.614;2023-03-16T07:05:01;4.90;;;4.27;;
15878;SDS011;61999;51.514;14.614;2023-03-16T07:07:29;5.67;;;4.97;;
15878;SDS011;61999;51.514;14.614;2023-03-16T07:09:57;7.73;;;5.00;;
15878;SDS011;61999;51.514;14.614;2023-03-16T07:12:26;5.20;;;4.13;;
15878;SDS011;61999;51.514;14.614;2023-03-16T07:14:54;7.90;;;4.97;;
15878;SDS011;61999;51.514;14.614;2023-03-16T07:17:22;7.43;;;4.63;;
15878;SDS011;61999;51.514;14.614;2023-03-16T07:19:50;5.53;;;4.13;;
15878;SDS011;61999;51.514;14.614;2023-03-16T07:22:18;6.33;;;4.27;;
15878;SDS011;61999;51.514;14.614;2023-03-16T07:24:47;5.93;;;4.60;;
15878;SDS011;61999;51.514;14.614;2023-03-16T07:27:21;6.47;;;4.13;;
15878;SDS011;61999;51.514;14.614;2023-03-16T07:29:50;6.57;;;4.30;;
15878;SDS011;61999;51.514;14.614;2023-03-16T07:32:18;7.00;;;4.70;;
15878;SDS011;61999;51.514;14.614;2023-03-16T07:34:47;5.87;;;3.50;;
15878;SDS011;61999;51.514;14.614;2023-03-16T07:37:15;4.63;;;3.57;;
15878;SDS011;61999;51.514;14.614;2023-03-16T07:39:49;10.00;;;3.30;;
15878;SDS011;61999;51.514;14.614;2023-03-16T07:42:17;7.53;;;3.70;;
15878;SDS011;61999;51.514;14.614;2023-03-16T07:44:45;7.33;;;3.93;;
15878;SDS011;61999;51.514;14.614;2023-03-16T07:47:15;5.80;;;4.43;;
15878;SDS011;61999;51.514;14.614;2023-03-16T07:49:43;5.70;;;3.77;;
15878;SDS011;61999;51.514;14.614;2023-03-16T07:52:11;4.70;;;3.37;;
15878;SDS011;61999;51.514;14.614;2023-03-16T07:54:39;6.30;;;2.97;;
15878;SDS011;61999;51.514;14.614;2023-03-16T07:57:08;3.77;;;3.43;;
15878;SDS011;61999;51.514;14.614;2023-03-16T07:59:37;4.57;;;3.13;;
15878;SDS011;61999;51.514;14.614;2023-03-16T08:02:05;4.67;;;3.33;;
15878;SDS011;61999;51.514;14.614;2023-03-16T08:04:38;3.87;;;2.90;;
15878;SDS011;61999;51.514;14.614;2023-03-16T08:07:07;4.03;;;3.13;;
15878;SDS011;61999;51.514;14.614;2023-03-16T08:09:35;7.00;;;3.27;;
15878;SDS011;61999;51.514;14.614;2023-03-16T08:12:04;5.80;;;3.37;;
15878;SDS011;61999;51.514;14.614;2023-03-16T08:14:34;5.97;;;3.57;;
15878;SDS011;61999;51.514;14.614;2023-03-16T08:17:03;3.33;;;3.00;;
15878;SDS011;61999;51.514;14.614;2023-03-16T08:19:33;6.23;;;3.10;;
15878;SDS011;61999;51.514;14.614;2023-03-16T08:22:02;5.13;;;3.70;;
15878;SDS011;61999;51.514;14.614;2023-03-16T08:24:31;7.60;;;3.70;;
15878;SDS011;61999;51.514;14.614;2023-03-16T08:26:59;5.17;;;2.90;;
15878;SDS011;61999;51.514;14.614;2023-03-16T08:29:28;4.97;;;3.00;;
15878;SDS011;61999;51.514;14.614;2023-03-16T08:31:59;4.10;;;2.10;;
15878;SDS011;61999;51.514;14.614;2023-03-16T08:34:28;3.93;;;2.87;;
15878;SDS011;61999;51.514;14.614;2023-03-16T08:36:57;4.80;;;2.70;;
15878;SDS011;61999;51.514;14.614;2023-03-16T08:39:27;3.17;;;2.23;;
15878;SDS011;61999;51.514;14.614;2023-03-16T08:41:55;5.53;;;2.77;;
15878;SDS011;61999;51.514;14.614;2023-03-16T08:44:23;5.10;;;2.70;;
15878;SDS011;61999;51.514;14.614;2023-03-16T08:46:52;3.70;;;2.50;;
15878;SDS011;61999;51.514;14.614;2023-03-16T08:49:20;3.47;;;2.70;;
15878;SDS011;61999;51.514;14.614;2023-03-16T08:51:49;6.20;;;2.80;;
15878;SDS011;61999;51.514;14.614;2023-03-16T08:54:17;3.67;;;2.57;;
15878;SDS011;61999;51.514;14.614;2023-03-16T08:56:46;3.40;;;2.40;;
15878;SDS011;61999;51.514;14.614;2023-03-16T08:59:14;4.57;;;2.77;;
15878;SDS011;61999;51.514;14.614;2023-03-16T09:01:54;4.43;;;2.20;;
15878;SDS011;61999;51.514;14.614;2023-03-16T09:04:22;2.80;;;1.73;;
15878;SDS011;61999;51.514;14.614;2023-03-16T09:06:50;4.23;;;2.30;;
15878;SDS011;61999;51.514;14.614;2023-03-16T09:09:33;3.67;;;2.13;;
15878;SDS011;61999;51.514;14.614;2023-03-16T09:12:02;4.47;;;2.10;;
15878;SDS011;61999;51.514;14.614;2023-03-16T09:14:31;4.07;;;2.30;;
15878;SDS011;61999;51.514;14.614;2023-03-16T09:17:00;2.73;;;1.97;;
15878;SDS011;61999;51.514;14.614;2023-03-16T09:19:28;2.90;;;1.73;;
15878;SDS011;61999;51.514;14.614;2023-03-16T09:22:13;3.67;;;1.90;;
15878;SDS011;61999;51.514;14.614;2023-03-16T09:24:42;2.73;;;1.50;;
15878;SDS011;61999;51.514;14.614;2023-03-16T09:27:11;5.37;;;1.70;;
15878;SDS011;61999;51.514;14.614;2023-03-16T09:29:40;3.97;;;1.70;;
15878;SDS011;61999;51.514;14.614;2023-03-16T09:32:08;3.33;;;1.63;;
15878;SDS011;61999;51.514;14.614;2023-03-16T09:34:37;3.43;;;1.30;;
15878;SDS011;61999;51.514;14.614;2023-03-16T09:37:05;5.27;;;1.67;;
15878;SDS011;61999;51.514;14.614;2023-03-16T09:39:34;3.13;;;1.70;;
15878;SDS011;61999;51.514;14.614;2023-03-16T09:42:04;1.87;;;0.90;;
15878;SDS011;61999;51.514;14.614;2023-03-16T09:44:46;3.50;;;1.60;;
15878;SDS011;61999;51.514;14.614;2023-03-16T09:47:29;1.27;;;1.13;;
15878;SDS011;61999;51.514;14.614;2023-03-16T09:50:03;3.00;;;1.27;;
15878;SDS011;61999;51.514;14.614;2023-03-16T09:52:37;2.30;;;1.00;;
15878;SDS011;61999;51.514;14.614;2023-03-16T09:55:18;3.47;;;1.33;;
15878;SDS011;61999;51.514;14.614;2023-03-16T09:57:55;3.13;;;0.90;;
15878;SDS011;61999;51.514;14.614;2023-03-16T10:00:26;1.53;;;0.97;;
15878;SDS011;61999;51.514;14.614;2023-03-16T10:03:01;5.17;;;1.20;;
15878;SDS011;61999;51.514;14.614;2023-03-16T10:05:43;4.80;;;1.47;;
15878;SDS011;61999;51.514;14.614;2023-03-16T10:08:19;2.23;;;1.00;;
15878;SDS011;61999;51.514;14.614;2023-03-16T10:10:54;4.13;;;1.30;;
15878;SDS011;61999;51.514;14.614;2023-03-16T10:13:40;2.67;;;0.90;;
15878;SDS011;61999;51.514;14.614;2023-03-16T10:16:15;1.40;;;0.90;;
15878;SDS011;61999;51.514;14.614;2023-03-16T10:18:58;1.93;;;0.90;;
15878;SDS011;61999;51.514;14.614;2023-03-16T10:21:30;1.07;;;0.90;;
15878;SDS011;61999;51.514;14.614;2023-03-16T10:24:08;1.73;;;0.90;;
15878;SDS011;61999;51.514;14.614;2023-03-16T10:26:53;1.57;;;0.80;;
15878;SDS011;61999;51.514;14.614;2023-03-16T10:29:26;1.93;;;1.10;;
15878;SDS011;61999;51.514;14.614;2023-03-16T10:32:06;4.90;;;1.10;;
15878;SDS011;61999;51.514;14.614;2023-03-16T10:34:42;3.27;;;1.10;;
15878;SDS011;61999;51.514;14.614;2023-03-16T10:37:19;2.47;;;0.80;;
15878;SDS011;61999;51.514;14.614;2023-03-16T10:39:48;2.73;;;1.00;;
15878;SDS011;61999;51.514;14.614;2023-03-16T10:42:17;1.00;;;0.63;;
15878;SDS011;61999;51.514;14.614;2023-03-16T10:44:48;2.03;;;0.90;;
15878;SDS011;61999;51.514;14.614;2023-03-16T10:47:27;1.07;;;0.80;;
15878;SDS011;61999;51.514;14.614;2023-03-16T10:49:57;1.23;;;0.77;;
15878;SDS011;61999;51.514;14.614;2023-03-16T10:52:39;3.47;;;0.93;;
15878;SDS011;61999;51.514;14.614;2023-03-16T10:55:15;2.10;;;1.10;;
15878;SDS011;61999;51.514;14.614;2023-03-16T10:57:50;2.00;;;0.80;;
15878;SDS011;61999;51.514;14.614;2023-03-16T11:00:24;2.20;;;0.73;;
15878;SDS011;61999;51.514;14.614;2023-03-16T11:02:57;1.20;;;0.87;;
15878;SDS011;61999;51.514;14.614;2023-03-16T11:05:27;2.57;;;0.90;;
15878;SDS011;61999;51.514;14.614;2023-03-16T11:08:00;1.97;;;1.50;;
15878;SDS011;61999;51.514;14.614;2023-03-16T11:10:36;2.27;;;1.10;;
15878;SDS011;61999;51.514;14.614;2023-03-16T11:13:20;3.13;;;0.87;;
15878;SDS011;61999;51.514;14.614;2023-03-16T11:15:49;2.63;;;1.00;;
15878;SDS011;61999;51.514;14.614;2023-03-16T11:18:26;2.33;;;0.90;;
15878;SDS011;61999;51.514;14.614;2023-03-16T11:20:59;1.90;;;0.70;;
15878;SDS011;61999;51.514;14.614;2023-03-16T11:23:39;1.57;;;0.87;;
15878;SDS011;61999;51.514;14.614;2023-03-16T11:26:16;1.57;;;1.17;;
15878;SDS011;61999;51.514;14.614;2023-03-16T11:28:49;1.53;;;0.80;;
15878;SDS011;61999;51.514;14.614;2023-03-16T11:31:32;1.50;;;0.70;;
15878;SDS011;61999;51.514;14.614;2023-03-16T11:34:11;1.20;;;0.90;;
15878;SDS011;61999;51.514;14.614;2023-03-16T11:36:46;2.07;;;0.80;;
15878;SDS011;61999;51.514;14.614;2023-03-16T11:39:24;1.63;;;0.80;;
15878;SDS011;61999;51.514;14.614;2023-03-16T11:42:03;2.60;;;0.93;;
15878;SDS011;61999;51.514;14.614;2023-03-16T11:44:51;1.47;;;0.83;;
15878;SDS011;61999;51.514;14.614;2023-03-16T11:47:35;2.17;;;1.03;;
15878;SDS011;61999;51.514;14.614;2023-03-16T11:50:42;2.80;;;1.20;;
15878;SDS011;61999;51.514;14.614;2023-03-16T11:53:30;2.30;;;0.90;;
15878;SDS011;61999;51.514;14.614;2023-03-16T11:56:15;1.67;;;0.80;;
15878;SDS011;61999;51.514;14.614;2023-03-16T12:05:15;2.47;;;0.90;;
15878;SDS011;61999;51.514;14.614;2023-03-16T12:08:01;1.73;;;0.87;;
15878;SDS011;61999;51.514;14.614;2023-03-16T12:10:48;2.40;;;0.97;;
15878;SDS011;61999;51.514;14.614;2023-03-16T12:13:29;1.67;;;1.20;;
15878;SDS011;61999;51.514;14.614;2023-03-16T12:16:10;1.90;;;0.97;;
15878;SDS011;61999;51.514;14.614;2023-03-16T12:18:48;2.73;;;1.20;;
15878;SDS011;61999;51.514;14.614;2023-03-16T12:21:27;3.03;;;0.90;;
15878;SDS011;61999;51.514;14.614;2023-03-16T12:24:00;1.00;;;0.70;;
15878;SDS011;61999;51.514;14.614;2023-03-16T12:26:33;2.20;;;1.10;;
15878;SDS011;61999;51.514;14.614;2023-03-16T12:29:09;2.07;;;1.00;;
15878;SDS011;61999;51.514;14.614;2023-03-16T12:31:54;3.07;;;1.07;;
15878;SDS011;61999;51.514;14.614;2023-03-16T12:34:36;3.37;;;1.13;;
15878;SDS011;61999;51.514;14.614;2023-03-16T12:37:20;3.00;;;0.97;;
15878;SDS011;61999;51.514;14.614;2023-03-16T12:40:03;1.57;;;0.77;;
15878;SDS011;61999;51.514;14.614;2023-03-16T12:42:54;2.87;;;0.90;;
15878;SDS011;61999;51.514;14.614;2023-03-16T12:45:42;3.30;;;1.07;;
15878;SDS011;61999;51.514;14.614;2023-03-16T12:48:26;1.97;;;0.90;;
15878;SDS011;61999;51.514;14.614;2023-03-16T12:50:58;2.50;;;1.30;;
15878;SDS011;61999;51.514;14.614;2023-03-16T12:53:42;1.53;;;0.83;;
15878;SDS011;61999;51.514;14.614;2023-03-16T12:56:19;2.80;;;1.23;;
15878;SDS011;61999;51.514;14.614;2023-03-16T12:58:56;1.97;;;0.93;;
15878;SDS011;61999;51.514;14.614;2023-03-16T13:01:27;2.63;;;1.03;;
15878;SDS011;61999;51.514;14.614;2023-03-16T13:04:05;2.40;;;0.80;;
15878;SDS011;61999;51.514;14.614;2023-03-16T13:06:41;2.63;;;0.97;;
15878;SDS011;61999;51.514;14.614;2023-03-16T13:09:16;1.90;;;0.67;;
15878;SDS011;61999;51.514;14.614;2023-03-16T13:11:48;1.93;;;0.83;;
15878;SDS011;61999;51.514;14.614;2023-03-16T13:14:29;2.30;;;0.80;;
15878;SDS011;61999;51.514;14.614;2023-03-16T13:17:09;2.13;;;1.10;;
15878;SDS011;61999;51.514;14.614;2023-03-16T13:19:59;2.07;;;0.70;;
15878;SDS011;61999;51.514;14.614;2023-03-16T13:23:06;2.30;;;0.73;;
15878;SDS011;61999;51.514;14.614;2023-03-16T13:26:09;2.97;;;0.90;;
15878;SDS011;61999;51.514;14.614;2023-03-16T13:28:43;2.03;;;0.90;;
15878;SDS011;61999;51.514;14.614;2023-03-16T13:31:18;2.90;;;1.00;;
15878;SDS011;61999;51.514;14.614;2023-03-16T13:33:52;1.50;;;0.90;;
15878;SDS011;61999;51.514;14.614;2023-03-16T13:36:25;1.90;;;1.30;;
15878;SDS011;61999;51.514;14.614;2023-03-16T13:38:55;3.20;;;1.10;;
15878;SDS011;61999;51.514;14.614;2023-03-16T13:41:33;2.17;;;1.23;;
15878;SDS011;61999;51.514;14.614;2023-03-16T13:44:02;1.73;;;0.80;;
15878;SDS011;61999;51.514;14.614;2023-03-16T13:46:31;1.47;;;0.83;;
15878;SDS011;61999;51.514;14.614;2023-03-16T13:49:00;2.53;;;1.17;;
15878;SDS011;61999;51.514;14.614;2023-03-16T13:51:28;2.50;;;1.03;;
15878;SDS011;61999;51.514;14.614;2023-03-16T13:54:09;2.07;;;1.00;;
15878;SDS011;61999;51.514;14.614;2023-03-16T13:56:51;2.37;;;0.73;;
15878;SDS011;61999;51.514;14.614;2023-03-16T13:59:23;1.33;;;0.80;;
15878;SDS011;61999;51.514;14.614;2023-03-16T14:01:55;2.07;;;0.90;;
15878;SDS011;61999;51.514;14.614;2023-03-16T14:04:26;2.13;;;0.60;;
15878;SDS011;61999;51.514;14.614;2023-03-16T14:06:57;2.73;;;0.80;;
15878;SDS011;61999;51.514;14.614;2023-03-16T14:09:29;0.80;;;0.80;;
15878;SDS011;61999;51.514;14.614;2023-03-16T14:12:02;1.53;;;0.90;;
15878;SDS011;61999;51.514;14.614;2023-03-16T14:14:36;2.63;;;0.83;;
15878;SDS011;61999;51.514;14.614;2023-03-16T14:17:08;3.40;;;2.40;;
15878;SDS011;61999;51.514;14.614;2023-03-16T14:19:41;3.37;;;1.90;;
15878;SDS011;61999;51.514;14.614;2023-03-16T14:22:13;1.83;;;0.93;;
15878;SDS011;61999;51.514;14.614;2023-03-16T14:24:50;2.57;;;1.10;;
15878;SDS011;61999;51.514;14.614;2023-03-16T14:27:24;2.37;;;0.70;;
15878;SDS011;61999;51.514;14.614;2023-03-16T14:29:59;1.33;;;1.00;;
15878;SDS011;61999;51.514;14.614;2023-03-16T14:32:40;1.90;;;0.83;;
15878;SDS011;61999;51.514;14.614;2023-03-16T14:35:21;2.07;;;0.90;;
15878;SDS011;61999;51.514;14.614;2023-03-16T14:37:53;0.73;;;0.57;;
15878;SDS011;61999;51.514;14.614;2023-03-16T14:40:24;1.27;;;0.93;;
15878;SDS011;61999;51.514;14.614;2023-03-16T14:42:57;3.53;;;1.30;;
15878;SDS011;61999;51.514;14.614;2023-03-16T14:45:30;3.13;;;0.90;;
15878;SDS011;61999;51.514;14.614;2023-03-16T14:48:02;1.77;;;1.17;;
15878;SDS011;61999;51.514;14.614;2023-03-16T14:50:34;1.63;;;0.90;;
15878;SDS011;61999;51.514;14.614;2023-03-16T14:53:02;3.20;;;1.00;;
15878;SDS011;61999;51.514;14.614;2023-03-16T14:55:31;1.07;;;0.77;;
15878;SDS011;61999;51.514;14.614;2023-03-16T14:58:01;1.87;;;1.00;;
15878;SDS011;61999;51.514;14.614;2023-03-16T15:00:29;1.50;;;1.20;;
15878;SDS011;61999;51.514;14.614;2023-03-16T15:03:09;2.67;;;1.10;;
15878;SDS011;61999;51.514;14.614;2023-03-16T15:05:42;2.37;;;1.07;;
15878;SDS011;61999;51.514;14.614;2023-03-16T15:08:15;1.30;;;0.93;;
15878;SDS011;61999;51.514;14.614;2023-03-16T15:10:51;1.57;;;0.90;;